sensor_id;sensor_type;location;lat;lon;timestamp;P1;durP1;ratioP1;P2;durP2;ratioP2
10645;SDS011;5371;49.782;9.932;2023-10-09T00:00:51;6.60;;;4.38;;
10645;SDS011;5371;49.782;9.932;2023-10-09T00:03:25;6.97;;;4.07;;
10645;SDS011;5371;49.782;9.932;2023-10-09T00:05:53;7.32;;;4.70;;
10645;SDS011;5371;49.782;9.932;2023-10-09T00:08:21;8.30;;;4.30;;
10645;SDS011;5371;49.782;9.932;2023-10-09T00:10:52;6.00;;;4.10;;
10645;SDS011;5371;49.782;9.932;2023-10-09T00:13:19;6.20;;;4.30;;
10645;SDS011;5371;49.782;9.932;2023-10-09T00:15:52;6.28;;;4.18;;
10645;SDS011;5371;49.782;9.932;2023-10-09T00:18:26;5.47;;;3.80;;
10645;SDS011;5371;49.782;9.932;2023-10-09T00:20:55;4.63;;;3.80;;
10645;SDS011;5371;49.782;9.932;2023-10-09T00:23:26;6.07;;;4.07;;
10645;SDS011;5371;49.782;9.932;2023-10-09T00:25:55;6.60;;;4.10;;
10645;SDS011;5371;49.782;9.932;2023-10-09T00:28:34;5.35;;;3.85;;
10645;SDS011;5371;49.782;9.932;2023-10-09T00:31:03;5.78;;;3.70;;
10645;SDS011;5371;49.782;9.932;2023-10-09T00:33:33;5.75;;;4.10;;
10645;SDS011;5371;49.782;9.932;2023-10-09T00:36:03;9.77;;;4.40;;
10645;SDS011;5371;49.782;9.932;2023-10-09T00:38:36;5.65;;;4.25;;
10645;SDS011;5371;49.782;9.932;2023-10-09T00:41:04;7.22;;;4.32;;
10645;SDS011;5371;49.782;9.932;2023-10-09T00:43:37;6.03;;;4.32;;
10645;SDS011;5371;49.782;9.932;2023-10-09T00:46:08;6.40;;;4.13;;
10645;SDS011;5371;49.782;9.932;2023-10-09T00:48:51;5.82;;;4.00;;
10645;SDS011;5371;49.782;9.932;2023-10-09T00:51:21;6.45;;;4.35;;
10645;SDS011;5371;49.782;9.932;2023-10-09T00:53:50;5.70;;;3.80;;
10645;SDS011;5371;49.782;9.932;2023-10-09T00:56:18;6.47;;;3.88;;
10645;SDS011;5371;49.782;9.932;2023-10-09T00:58:55;8.52;;;4.03;;
10645;SDS011;5371;49.782;9.932;2023-10-09T01:01:33;5.25;;;3.90;;
10645;SDS011;5371;49.782;9.932;2023-10-09T01:04:03;7.22;;;4.47;;
10645;SDS011;5371;49.782;9.932;2023-10-09T01:06:41;8.32;;;4.80;;
10645;SDS011;5371;49.782;9.932;2023-10-09T01:09:11;9.32;;;4.63;;
10645;SDS011;5371;49.782;9.932;2023-10-09T01:11:39;6.95;;;4.55;;
10645;SDS011;5371;49.782;9.932;2023-10-09T01:14:29;5.88;;;4.10;;
10645;SDS011;5371;49.782;9.932;2023-10-09T01:16:56;7.07;;;4.32;;
10645;SDS011;5371;49.782;9.932;2023-10-09T01:19:27;7.00;;;4.30;;
10645;SDS011;5371;49.782;9.932;2023-10-09T01:21:56;6.93;;;4.47;;
10645;SDS011;5371;49.782;9.932;2023-10-09T01:24:31;7.13;;;4.40;;
10645;SDS011;5371;49.782;9.932;2023-10-09T01:27:04;7.45;;;4.57;;
10645;SDS011;5371;49.782;9.932;2023-10-09T01:29:36;11.68;;;4.72;;
10645;SDS011;5371;49.782;9.932;2023-10-09T01:32:07;9.05;;;4.50;;
10645;SDS011;5371;49.782;9.932;2023-10-09T01:34:42;5.13;;;3.92;;
10645;SDS011;5371;49.782;9.932;2023-10-09T01:37:11;5.55;;;3.92;;
10645;SDS011;5371;49.782;9.932;2023-10-09T01:39:45;6.35;;;4.20;;
10645;SDS011;5371;49.782;9.932;2023-10-09T01:42:14;7.28;;;4.10;;
10645;SDS011;5371;49.782;9.932;2023-10-09T01:44:51;6.53;;;3.95;;
10645;SDS011;5371;49.782;9.932;2023-10-09T01:47:19;6.85;;;4.22;;
10645;SDS011;5371;49.782;9.932;2023-10-09T01:49:47;8.63;;;4.47;;
10645;SDS011;5371;49.782;9.932;2023-10-09T01:52:15;7.28;;;4.45;;
10645;SDS011;5371;49.782;9.932;2023-10-09T01:54:45;11.32;;;5.00;;
10645;SDS011;5371;49.782;9.932;2023-10-09T01:57:14;7.05;;;4.57;;
10645;SDS011;5371;49.782;9.932;2023-10-09T01:59:47;6.63;;;4.45;;
10645;SDS011;5371;49.782;9.932;2023-10-09T02:02:15;6.53;;;4.72;;
10645;SDS011;5371;49.782;9.932;2023-10-09T02:04:51;6.50;;;4.70;;
10645;SDS011;5371;49.782;9.932;2023-10-09T02:07:20;5.75;;;4.20;;
10645;SDS011;5371;49.782;9.932;2023-10-09T02:09:55;6.60;;;4.40;;
10645;SDS011;5371;49.782;9.932;2023-10-09T02:12:22;11.98;;;4.70;;
10645;SDS011;5371;49.782;9.932;2023-10-09T02:14:50;8.30;;;4.38;;
10645;SDS011;5371;49.782;9.932;2023-10-09T02:17:21;5.50;;;3.95;;
10645;SDS011;5371;49.782;9.932;2023-10-09T02:19:54;6.18;;;4.20;;
10645;SDS011;5371;49.782;9.932;2023-10-09T02:22:22;7.88;;;4.72;;
10645;SDS011;5371;49.782;9.932;2023-10-09T02:24:51;9.10;;;4.35;;
10645;SDS011;5371;49.782;9.932;2023-10-09T02:27:26;5.70;;;3.95;;
10645;SDS011;5371;49.782;9.932;2023-10-09T02:30:19;6.47;;;4.22;;
10645;SDS011;5371;49.782;9.932;2023-10-09T02:32:52;7.38;;;4.05;;
10645;SDS011;5371;49.782;9.932;2023-10-09T02:35:32;5.72;;;3.88;;
10645;SDS011;5371;49.782;9.932;2023-10-09T02:38:03;6.38;;;3.95;;
10645;SDS011;5371;49.782;9.932;2023-10-09T02:40:33;5.88;;;4.28;;
10645;SDS011;5371;49.782;9.932;2023-10-09T02:43:22;5.72;;;4.30;;
10645;SDS011;5371;49.782;9.932;2023-10-09T02:45:50;7.30;;;4.40;;
10645;SDS011;5371;49.782;9.932;2023-10-09T02:48:18;8.00;;;4.20;;
10645;SDS011;5371;49.782;9.932;2023-10-09T02:50:51;7.30;;;4.10;;
10645;SDS011;5371;49.782;9.932;2023-10-09T02:53:19;7.18;;;4.53;;
10645;SDS011;5371;49.782;9.932;2023-10-09T02:55:55;7.55;;;4.40;;
10645;SDS011;5371;49.782;9.932;2023-10-09T02:58:39;6.07;;;4.65;;
10645;SDS011;5371;49.782;9.932;2023-10-09T03:01:11;5.78;;;4.38;;
10645;SDS011;5371;49.782;9.932;2023-10-09T03:03:39;6.43;;;5.05;;
10645;SDS011;5371;49.782;9.932;2023-10-09T03:06:10;6.47;;;4.70;;
10645;SDS011;5371;49.782;9.932;2023-10-09T03:08:38;7.35;;;4.50;;
10645;SDS011;5371;49.782;9.932;2023-10-09T03:11:07;5.72;;;4.25;;
10645;SDS011;5371;49.782;9.932;2023-10-09T03:13:43;8.80;;;4.57;;
10645;SDS011;5371;49.782;9.932;2023-10-09T03:16:10;7.47;;;5.05;;
10645;SDS011;5371;49.782;9.932;2023-10-09T03:18:45;8.25;;;4.93;;
10645;SDS011;5371;49.782;9.932;2023-10-09T03:21:13;7.53;;;5.10;;
10645;SDS011;5371;49.782;9.932;2023-10-09T03:23:42;6.53;;;4.80;;
10645;SDS011;5371;49.782;9.932;2023-10-09T03:26:10;8.68;;;4.72;;
10645;SDS011;5371;49.782;9.932;2023-10-09T03:28:37;8.18;;;4.85;;
10645;SDS011;5371;49.782;9.932;2023-10-09T03:31:05;6.57;;;4.97;;
10645;SDS011;5371;49.782;9.932;2023-10-09T03:33:32;8.75;;;5.18;;
10645;SDS011;5371;49.782;9.932;2023-10-09T03:35:59;5.72;;;4.20;;
10645;SDS011;5371;49.782;9.932;2023-10-09T03:38:26;6.38;;;4.70;;
10645;SDS011;5371;49.782;9.932;2023-10-09T03:41:00;5.68;;;4.57;;
10645;SDS011;5371;49.782;9.932;2023-10-09T03:43:31;9.07;;;6.07;;
10645;SDS011;5371;49.782;9.932;2023-10-09T03:46:03;9.95;;;5.03;;
10645;SDS011;5371;49.782;9.932;2023-10-09T03:48:41;8.80;;;4.90;;
10645;SDS011;5371;49.782;9.932;2023-10-09T03:51:12;7.13;;;5.93;;
10645;SDS011;5371;49.782;9.932;2023-10-09T03:53:41;11.57;;;6.40;;
10645;SDS011;5371;49.782;9.932;2023-10-09T03:56:08;11.25;;;7.80;;
10645;SDS011;5371;49.782;9.932;2023-10-09T03:58:38;10.15;;;8.00;;
10645;SDS011;5371;49.782;9.932;2023-10-09T04:01:08;12.43;;;8.68;;
10645;SDS011;5371;49.782;9.932;2023-10-09T04:03:44;12.32;;;10.05;;
10645;SDS011;5371;49.782;9.932;2023-10-09T04:06:11;15.45;;;8.55;;
10645;SDS011;5371;49.782;9.932;2023-10-09T04:08:38;10.30;;;7.40;;
10645;SDS011;5371;49.782;9.932;2023-10-09T04:11:12;9.48;;;7.10;;
10645;SDS011;5371;49.782;9.932;2023-10-09T04:13:43;8.35;;;6.18;;
10645;SDS011;5371;49.782;9.932;2023-10-09T04:16:12;9.30;;;6.53;;
10645;SDS011;5371;49.782;9.932;2023-10-09T04:19:00;10.07;;;7.05;;
10645;SDS011;5371;49.782;9.932;2023-10-09T04:21:34;11.23;;;7.05;;
10645;SDS011;5371;49.782;9.932;2023-10-09T04:24:00;8.70;;;6.10;;
10645;SDS011;5371;49.782;9.932;2023-10-09T04:26:49;11.98;;;6.32;;
10645;SDS011;5371;49.782;9.932;2023-10-09T04:29:21;11.40;;;6.20;;
10645;SDS011;5371;49.782;9.932;2023-10-09T04:31:52;10.43;;;6.35;;
10645;SDS011;5371;49.782;9.932;2023-10-09T04:34:22;9.40;;;5.90;;
10645;SDS011;5371;49.782;9.932;2023-10-09T04:36:54;8.15;;;5.72;;
10645;SDS011;5371;49.782;9.932;2023-10-09T04:39:26;8.73;;;5.47;;
10645;SDS011;5371;49.782;9.932;2023-10-09T04:42:02;9.18;;;5.47;;
10645;SDS011;5371;49.782;9.932;2023-10-09T04:44:47;7.95;;;5.43;;
10645;SDS011;5371;49.782;9.932;2023-10-09T04:47:46;6.30;;;5.07;;
10645;SDS011;5371;49.782;9.932;2023-10-09T04:50:16;6.65;;;4.88;;
10645;SDS011;5371;49.782;9.932;2023-10-09T04:52:57;6.75;;;5.03;;
10645;SDS011;5371;49.782;9.932;2023-10-09T04:55:44;8.73;;;4.93;;
10645;SDS011;5371;49.782;9.932;2023-10-09T04:58:19;8.73;;;5.38;;
10645;SDS011;5371;49.782;9.932;2023-10-09T05:00:51;7.75;;;5.20;;
10645;SDS011;5371;49.782;9.932;2023-10-09T05:03:41;7.20;;;5.35;;
10645;SDS011;5371;49.782;9.932;2023-10-09T05:06:12;8.45;;;5.65;;
10645;SDS011;5371;49.782;9.932;2023-10-09T05:09:08;13.20;;;5.22;;
10645;SDS011;5371;49.782;9.932;2023-10-09T05:11:38;6.53;;;4.82;;
10645;SDS011;5371;49.782;9.932;2023-10-09T05:14:34;8.65;;;5.20;;
10645;SDS011;5371;49.782;9.932;2023-10-09T05:17:16;8.95;;;5.22;;
10645;SDS011;5371;49.782;9.932;2023-10-09T05:19:43;7.85;;;5.10;;
10645;SDS011;5371;49.782;9.932;2023-10-09T05:22:21;8.35;;;5.38;;
10645;SDS011;5371;49.782;9.932;2023-10-09T05:25:03;9.98;;;5.97;;
10645;SDS011;5371;49.782;9.932;2023-10-09T05:27:41;12.00;;;5.03;;
10645;SDS011;5371;49.782;9.932;2023-10-09T05:30:11;7.72;;;5.38;;
10645;SDS011;5371;49.782;9.932;2023-10-09T05:32:54;9.15;;;5.25;;
10645;SDS011;5371;49.782;9.932;2023-10-09T05:35:24;9.57;;;5.50;;
10645;SDS011;5371;49.782;9.932;2023-10-09T05:38:08;11.98;;;5.57;;
10645;SDS011;5371;49.782;9.932;2023-10-09T05:40:49;10.98;;;5.28;;
10645;SDS011;5371;49.782;9.932;2023-10-09T05:43:19;8.45;;;5.72;;
10645;SDS011;5371;49.782;9.932;2023-10-09T05:46:01;6.40;;;4.90;;
10645;SDS011;5371;49.782;9.932;2023-10-09T05:48:35;8.30;;;5.63;;
10645;SDS011;5371;49.782;9.932;2023-10-09T05:51:20;8.27;;;5.25;;
10645;SDS011;5371;49.782;9.932;2023-10-09T05:54:06;8.52;;;5.20;;
10645;SDS011;5371;49.782;9.932;2023-10-09T05:57:10;9.38;;;5.30;;
10645;SDS011;5371;49.782;9.932;2023-10-09T06:00:02;7.57;;;5.38;;
10645;SDS011;5371;49.782;9.932;2023-10-09T06:02:47;9.93;;;5.47;;
10645;SDS011;5371;49.782;9.932;2023-10-09T06:05:32;8.18;;;5.10;;
10645;SDS011;5371;49.782;9.932;2023-10-09T06:08:17;12.65;;;5.70;;
10645;SDS011;5371;49.782;9.932;2023-10-09T06:10:52;10.18;;;5.40;;
10645;SDS011;5371;49.782;9.932;2023-10-09T06:13:31;10.27;;;5.80;;
10645;SDS011;5371;49.782;9.932;2023-10-09T06:16:10;11.38;;;5.50;;
10645;SDS011;5371;49.782;9.932;2023-10-09T06:18:55;10.13;;;5.72;;
10645;SDS011;5371;49.782;9.932;2023-10-09T06:21:33;9.18;;;5.55;;
10645;SDS011;5371;49.782;9.932;2023-10-09T06:24:06;8.43;;;6.22;;
10645;SDS011;5371;49.782;9.932;2023-10-09T06:26:42;10.65;;;5.78;;
10645;SDS011;5371;49.782;9.932;2023-10-09T06:29:33;10.95;;;5.70;;
10645;SDS011;5371;49.782;9.932;2023-10-09T06:32:01;11.10;;;5.70;;
10645;SDS011;5371;49.782;9.932;2023-10-09T06:34:42;10.15;;;5.40;;
10645;SDS011;5371;49.782;9.932;2023-10-09T06:37:12;11.63;;;5.93;;
10645;SDS011;5371;49.782;9.932;2023-10-09T06:39:59;11.02;;;6.13;;
10645;SDS011;5371;49.782;9.932;2023-10-09T06:42:53;12.27;;;5.95;;
10645;SDS011;5371;49.782;9.932;2023-10-09T06:45:20;8.90;;;5.60;;
10645;SDS011;5371;49.782;9.932;2023-10-09T06:47:53;9.57;;;6.07;;
10645;SDS011;5371;49.782;9.932;2023-10-09T06:50:21;8.88;;;5.90;;
10645;SDS011;5371;49.782;9.932;2023-10-09T06:52:51;9.77;;;5.55;;
10645;SDS011;5371;49.782;9.932;2023-10-09T06:55:44;7.80;;;6.20;;
10645;SDS011;5371;49.782;9.932;2023-10-09T06:58:17;10.77;;;5.88;;
10645;SDS011;5371;49.782;9.932;2023-10-09T07:00:49;8.65;;;5.40;;
10645;SDS011;5371;49.782;9.932;2023-10-09T07:03:40;9.25;;;5.63;;
10645;SDS011;5371;49.782;9.932;2023-10-09T07:06:17;7.68;;;5.68;;
10645;SDS011;5371;49.782;9.932;2023-10-09T07:08:51;10.57;;;5.38;;
10645;SDS011;5371;49.782;9.932;2023-10-09T07:11:41;11.63;;;5.72;;
10645;SDS011;5371;49.782;9.932;2023-10-09T07:14:27;11.43;;;5.43;;
10645;SDS011;5371;49.782;9.932;2023-10-09T07:17:11;8.20;;;5.20;;
10645;SDS011;5371;49.782;9.932;2023-10-09T07:20:10;7.30;;;4.72;;
10645;SDS011;5371;49.782;9.932;2023-10-09T07:22:41;9.18;;;5.20;;
10645;SDS011;5371;49.782;9.932;2023-10-09T07:25:21;9.30;;;4.88;;
10645;SDS011;5371;49.782;9.932;2023-10-09T07:28:06;9.38;;;4.80;;
10645;SDS011;5371;49.782;9.932;2023-10-09T07:30:56;10.05;;;4.88;;
10645;SDS011;5371;49.782;9.932;2023-10-09T07:33:26;11.38;;;5.40;;
10645;SDS011;5371;49.782;9.932;2023-10-09T07:36:07;10.13;;;5.22;;
10645;SDS011;5371;49.782;9.932;2023-10-09T07:38:34;9.43;;;5.10;;
10645;SDS011;5371;49.782;9.932;2023-10-09T07:41:01;12.65;;;5.55;;
10645;SDS011;5371;49.782;9.932;2023-10-09T07:43:42;12.77;;;5.18;;
10645;SDS011;5371;49.782;9.932;2023-10-09T07:46:14;9.65;;;5.10;;
10645;SDS011;5371;49.782;9.932;2023-10-09T07:48:58;9.93;;;4.60;;
10645;SDS011;5371;49.782;9.932;2023-10-09T07:51:34;10.60;;;4.97;;
10645;SDS011;5371;49.782;9.932;2023-10-09T07:54:01;7.68;;;4.78;;
10645;SDS011;5371;49.782;9.932;2023-10-09T07:56:33;11.35;;;4.85;;
10645;SDS011;5371;49.782;9.932;2023-10-09T07:59:04;10.65;;;4.88;;
10645;SDS011;5371;49.782;9.932;2023-10-09T08:01:39;7.30;;;5.18;;
10645;SDS011;5371;49.782;9.932;2023-10-09T08:04:17;10.18;;;5.13;;
10645;SDS011;5371;49.782;9.932;2023-10-09T08:07:02;10.20;;;4.80;;
10645;SDS011;5371;49.782;9.932;2023-10-09T08:09:34;8.05;;;4.35;;
10645;SDS011;5371;49.782;9.932;2023-10-09T08:12:13;8.30;;;4.57;;
10645;SDS011;5371;49.782;9.932;2023-10-09T08:14:47;12.25;;;5.10;;
10645;SDS011;5371;49.782;9.932;2023-10-09T08:17:16;8.85;;;4.65;;
10645;SDS011;5371;49.782;9.932;2023-10-09T08:19:46;9.93;;;4.93;;
10645;SDS011;5371;49.782;9.932;2023-10-09T08:22:22;11.35;;;5.30;;
10645;SDS011;5371;49.782;9.932;2023-10-09T08:25:07;11.07;;;5.13;;
10645;SDS011;5371;49.782;9.932;2023-10-09T08:27:52;12.02;;;5.28;;
10645;SDS011;5371;49.782;9.932;2023-10-09T08:30:23;11.02;;;5.57;;
10645;SDS011;5371;49.782;9.932;2023-10-09T08:33:16;13.95;;;6.13;;
10645;SDS011;5371;49.782;9.932;2023-10-09T08:36:06;13.07;;;5.65;;
10645;SDS011;5371;49.782;9.932;2023-10-09T08:38:33;13.07;;;6.30;;
10645;SDS011;5371;49.782;9.932;2023-10-09T08:41:07;15.73;;;6.20;;
10645;SDS011;5371;49.782;9.932;2023-10-09T08:43:49;12.50;;;6.28;;
10645;SDS011;5371;49.782;9.932;2023-10-09T08:46:20;12.40;;;6.72;;
10645;SDS011;5371;49.782;9.932;2023-10-09T08:48:50;13.43;;;6.03;;
10645;SDS011;5371;49.782;9.932;2023-10-09T08:51:17;15.27;;;6.65;;
10645;SDS011;5371;49.782;9.932;2023-10-09T08:53:45;13.13;;;6.10;;
10645;SDS011;5371;49.782;9.932;2023-10-09T08:56:13;15.23;;;6.70;;
10645;SDS011;5371;49.782;9.932;2023-10-09T08:58:48;16.58;;;6.10;;
10645;SDS011;5371;49.782;9.932;2023-10-09T09:01:16;11.93;;;6.45;;
10645;SDS011;5371;49.782;9.932;2023-10-09T09:03:47;12.07;;;6.07;;
10645;SDS011;5371;49.782;9.932;2023-10-09T09:06:17;13.98;;;6.45;;
10645;SDS011;5371;49.782;9.932;2023-10-09T09:08:45;15.20;;;5.93;;
10645;SDS011;5371;49.782;9.932;2023-10-09T09:11:14;9.68;;;5.60;;
10645;SDS011;5371;49.782;9.932;2023-10-09T09:13:43;10.88;;;5.65;;
10645;SDS011;5371;49.782;9.932;2023-10-09T09:16:18;14.15;;;5.78;;
10645;SDS011;5371;49.782;9.932;2023-10-09T09:18:55;15.20;;;5.55;;
10645;SDS011;5371;49.782;9.932;2023-10-09T09:21:31;17.48;;;5.57;;
10645;SDS011;5371;49.782;9.932;2023-10-09T09:24:04;18.92;;;6.00;;
10645;SDS011;5371;49.782;9.932;2023-10-09T09:26:41;12.75;;;5.28;;
10645;SDS011;5371;49.782;9.932;2023-10-09T09:29:11;8.32;;;4.80;;
10645;SDS011;5371;49.782;9.932;2023-10-09T09:31:50;12.10;;;5.88;;
10645;SDS011;5371;49.782;9.932;2023-10-09T09:34:18;14.73;;;5.68;;
10645;SDS011;5371;49.782;9.932;2023-10-09T09:36:53;10.77;;;5.63;;
10645;SDS011;5371;49.782;9.932;2023-10-09T09:39:22;13.68;;;5.20;;
10645;SDS011;5371;49.782;9.932;2023-10-09T09:41:56;15.68;;;5.70;;
10645;SDS011;5371;49.782;9.932;2023-10-09T09:44:32;15.05;;;6.95;;
10645;SDS011;5371;49.782;9.932;2023-10-09T09:47:00;13.73;;;5.55;;
10645;SDS011;5371;49.782;9.932;2023-10-09T09:49:31;14.27;;;6.20;;
10645;SDS011;5371;49.782;9.932;2023-10-09T09:52:02;13.90;;;5.78;;
10645;SDS011;5371;49.782;9.932;2023-10-09T09:54:35;17.92;;;6.35;;
10645;SDS011;5371;49.782;9.932;2023-10-09T09:57:03;8.10;;;5.93;;
10645;SDS011;5371;49.782;9.932;2023-10-09T09:59:37;15.05;;;6.07;;
10645;SDS011;5371;49.782;9.932;2023-10-09T10:02:17;12.23;;;5.55;;
10645;SDS011;5371;49.782;9.932;2023-10-09T10:04:47;15.93;;;5.75;;
10645;SDS011;5371;49.782;9.932;2023-10-09T10:07:19;12.88;;;5.88;;
10645;SDS011;5371;49.782;9.932;2023-10-09T10:09:47;14.98;;;6.45;;
10645;SDS011;5371;49.782;9.932;2023-10-09T10:18:53;12.98;;;5.68;;
10645;SDS011;5371;49.782;9.932;2023-10-09T10:21:25;11.63;;;5.43;;
10645;SDS011;5371;49.782;9.932;2023-10-09T10:27:31;10.95;;;5.68;;
10645;SDS011;5371;49.782;9.932;2023-10-09T10:30:28;12.80;;;5.35;;
10645;SDS011;5371;49.782;9.932;2023-10-09T10:33:02;13.85;;;4.75;;
10645;SDS011;5371;49.782;9.932;2023-10-09T10:35:39;14.60;;;4.85;;
10645;SDS011;5371;49.782;9.932;2023-10-09T10:38:27;15.18;;;4.80;;
10645;SDS011;5371;49.782;9.932;2023-10-09T10:41:13;14.35;;;5.30;;
10645;SDS011;5371;49.782;9.932;2023-10-09T10:43:42;17.85;;;5.05;;
10645;SDS011;5371;49.782;9.932;2023-10-09T10:46:25;12.07;;;4.82;;
10645;SDS011;5371;49.782;9.932;2023-10-09T10:49:03;11.90;;;4.90;;
10645;SDS011;5371;49.782;9.932;2023-10-09T10:51:40;11.43;;;4.80;;
10645;SDS011;5371;49.782;9.932;2023-10-09T10:54:19;13.80;;;4.82;;
10645;SDS011;5371;49.782;9.932;2023-10-09T10:57:19;14.05;;;5.70;;
10645;SDS011;5371;49.782;9.932;2023-10-09T10:59:54;18.17;;;6.05;;
10645;SDS011;5371;49.782;9.932;2023-10-09T11:02:39;16.27;;;5.30;;
10645;SDS011;5371;49.782;9.932;2023-10-09T11:05:07;17.23;;;5.50;;
10645;SDS011;5371;49.782;9.932;2023-10-09T11:07:57;17.65;;;5.18;;
10645;SDS011;5371;49.782;9.932;2023-10-09T11:10:25;18.58;;;5.45;;
10645;SDS011;5371;49.782;9.932;2023-10-09T11:12:58;16.15;;;5.60;;
10645;SDS011;5371;49.782;9.932;2023-10-09T11:15:43;13.57;;;4.90;;
10645;SDS011;5371;49.782;9.932;2023-10-09T11:18:12;13.77;;;5.35;;
10645;SDS011;5371;49.782;9.932;2023-10-09T11:20:45;16.20;;;5.70;;
10645;SDS011;5371;49.782;9.932;2023-10-09T11:23:22;15.68;;;5.18;;
10645;SDS011;5371;49.782;9.932;2023-10-09T11:26:01;20.77;;;5.85;;
10645;SDS011;5371;49.782;9.932;2023-10-09T11:28:47;17.08;;;5.32;;
10645;SDS011;5371;49.782;9.932;2023-10-09T11:31:38;12.35;;;4.32;;
10645;SDS011;5371;49.782;9.932;2023-10-09T11:34:17;14.00;;;3.95;;
10645;SDS011;5371;49.782;9.932;2023-10-09T11:36:55;15.25;;;4.70;;
10645;SDS011;5371;49.782;9.932;2023-10-09T11:39:29;13.85;;;4.55;;
10645;SDS011;5371;49.782;9.932;2023-10-09T11:42:02;11.18;;;3.80;;
10645;SDS011;5371;49.782;9.932;2023-10-09T11:44:37;10.35;;;4.00;;
10645;SDS011;5371;49.782;9.932;2023-10-09T11:47:06;12.43;;;4.05;;
10645;SDS011;5371;49.782;9.932;2023-10-09T11:49:48;14.10;;;3.95;;
10645;SDS011;5371;49.782;9.932;2023-10-09T11:52:22;11.55;;;4.63;;
10645;SDS011;5371;49.782;9.932;2023-10-09T11:55:04;9.88;;;4.30;;
10645;SDS011;5371;49.782;9.932;2023-10-09T11:57:32;16.83;;;4.80;;
10645;SDS011;5371;49.782;9.932;2023-10-09T12:00:02;13.70;;;4.50;;
10645;SDS011;5371;49.782;9.932;2023-10-09T12:02:47;17.23;;;6.80;;
10645;SDS011;5371;49.782;9.932;2023-10-09T12:05:15;13.23;;;4.55;;
10645;SDS011;5371;49.782;9.932;2023-10-09T12:07:44;11.80;;;4.82;;
10645;SDS011;5371;49.782;9.932;2023-10-09T12:10:11;9.02;;;3.83;;
10645;SDS011;5371;49.782;9.932;2023-10-09T12:12:39;10.65;;;4.07;;
10645;SDS011;5371;49.782;9.932;2023-10-09T12:15:13;11.27;;;4.47;;
10645;SDS011;5371;49.782;9.932;2023-10-09T12:17:42;10.68;;;4.20;;
10645;SDS011;5371;49.782;9.932;2023-10-09T12:20:12;14.13;;;4.43;;
10645;SDS011;5371;49.782;9.932;2023-10-09T12:22:56;14.90;;;4.35;;
10645;SDS011;5371;49.782;9.932;2023-10-09T12:25:24;12.07;;;4.40;;
10645;SDS011;5371;49.782;9.932;2023-10-09T12:27:51;12.00;;;4.40;;
10645;SDS011;5371;49.782;9.932;2023-10-09T12:30:24;13.48;;;4.40;;
10645;SDS011;5371;49.782;9.932;2023-10-09T12:32:53;13.15;;;4.38;;
10645;SDS011;5371;49.782;9.932;2023-10-09T12:35:22;11.52;;;3.85;;
10645;SDS011;5371;49.782;9.932;2023-10-09T12:37:50;12.93;;;4.55;;
10645;SDS011;5371;49.782;9.932;2023-10-09T12:40:20;10.15;;;4.22;;
10645;SDS011;5371;49.782;9.932;2023-10-09T12:42:54;15.25;;;4.70;;
10645;SDS011;5371;49.782;9.932;2023-10-09T12:45:25;11.27;;;4.55;;
10645;SDS011;5371;49.782;9.932;2023-10-09T12:47:53;13.95;;;4.15;;
10645;SDS011;5371;49.782;9.932;2023-10-09T12:50:24;15.65;;;4.60;;
10645;SDS011;5371;49.782;9.932;2023-10-09T12:52:57;10.50;;;4.15;;
10645;SDS011;5371;49.782;9.932;2023-10-09T12:55:27;12.93;;;4.05;;
10645;SDS011;5371;49.782;9.932;2023-10-09T12:58:01;13.27;;;4.50;;
10645;SDS011;5371;49.782;9.932;2023-10-09T13:00:34;11.10;;;4.30;;
10645;SDS011;5371;49.782;9.932;2023-10-09T13:03:04;13.27;;;3.78;;
10645;SDS011;5371;49.782;9.932;2023-10-09T13:05:43;7.93;;;4.07;;
10645;SDS011;5371;49.782;9.932;2023-10-09T13:08:18;10.07;;;4.00;;
10645;SDS011;5371;49.782;9.932;2023-10-09T13:10:47;10.30;;;4.40;;
10645;SDS011;5371;49.782;9.932;2023-10-09T13:13:25;14.52;;;4.30;;
10645;SDS011;5371;49.782;9.932;2023-10-09T13:16:10;9.93;;;4.10;;
10645;SDS011;5371;49.782;9.932;2023-10-09T13:18:39;12.25;;;4.32;;
10645;SDS011;5371;49.782;9.932;2023-10-09T13:21:07;14.50;;;4.35;;
10645;SDS011;5371;49.782;9.932;2023-10-09T13:23:34;11.95;;;4.53;;
10645;SDS011;5371;49.782;9.932;2023-10-09T13:26:05;7.93;;;3.97;;
10645;SDS011;5371;49.782;9.932;2023-10-09T13:28:44;16.17;;;4.18;;
10645;SDS011;5371;49.782;9.932;2023-10-09T13:31:13;14.27;;;3.90;;
10645;SDS011;5371;49.782;9.932;2023-10-09T13:33:41;11.55;;;4.70;;
10645;SDS011;5371;49.782;9.932;2023-10-09T13:36:08;12.15;;;4.55;;
10645;SDS011;5371;49.782;9.932;2023-10-09T13:38:43;10.57;;;4.72;;
10645;SDS011;5371;49.782;9.932;2023-10-09T13:41:10;14.60;;;4.47;;
10645;SDS011;5371;49.782;9.932;2023-10-09T13:43:40;13.85;;;4.53;;
10645;SDS011;5371;49.782;9.932;2023-10-09T13:46:08;11.07;;;4.30;;
10645;SDS011;5371;49.782;9.932;2023-10-09T13:48:38;9.43;;;4.28;;
10645;SDS011;5371;49.782;9.932;2023-10-09T13:51:07;10.40;;;4.32;;
10645;SDS011;5371;49.782;9.932;2023-10-09T13:53:40;10.55;;;4.10;;
10645;SDS011;5371;49.782;9.932;2023-10-09T13:56:12;11.43;;;4.20;;
10645;SDS011;5371;49.782;9.932;2023-10-09T13:58:44;10.68;;;4.30;;
10645;SDS011;5371;49.782;9.932;2023-10-09T14:01:12;11.13;;;4.50;;
10645;SDS011;5371;49.782;9.932;2023-10-09T14:03:47;10.30;;;4.82;;
10645;SDS011;5371;49.782;9.932;2023-10-09T14:06:18;10.68;;;4.40;;
10645;SDS011;5371;49.782;9.932;2023-10-09T14:08:56;13.43;;;4.85;;
10645;SDS011;5371;49.782;9.932;2023-10-09T14:11:29;21.98;;;5.10;;
10645;SDS011;5371;49.782;9.932;2023-10-09T14:13:56;12.50;;;5.07;;
10645;SDS011;5371;49.782;9.932;2023-10-09T14:16:25;8.88;;;4.70;;
10645;SDS011;5371;49.782;9.932;2023-10-09T14:19:01;9.90;;;4.30;;
10645;SDS011;5371;49.782;9.932;2023-10-09T14:21:33;12.57;;;4.80;;
10645;SDS011;5371;49.782;9.932;2023-10-09T14:24:03;12.10;;;4.57;;
10645;SDS011;5371;49.782;9.932;2023-10-09T14:26:40;7.55;;;4.32;;
10645;SDS011;5371;49.782;9.932;2023-10-09T14:29:10;11.60;;;5.28;;
10645;SDS011;5371;49.782;9.932;2023-10-09T14:31:41;10.73;;;4.68;;
10645;SDS011;5371;49.782;9.932;2023-10-09T14:34:10;10.73;;;4.82;;
10645;SDS011;5371;49.782;9.932;2023-10-09T14:36:37;8.23;;;4.38;;
10645;SDS011;5371;49.782;9.932;2023-10-09T14:39:09;12.40;;;4.63;;
10645;SDS011;5371;49.782;9.932;2023-10-09T14:41:38;11.85;;;5.13;;
10645;SDS011;5371;49.782;9.932;2023-10-09T14:44:06;8.90;;;4.88;;
10645;SDS011;5371;49.782;9.932;2023-10-09T14:46:41;9.55;;;4.63;;
10645;SDS011;5371;49.782;9.932;2023-10-09T14:49:10;8.18;;;4.20;;
10645;SDS011;5371;49.782;9.932;2023-10-09T14:51:39;10.18;;;4.75;;
10645;SDS011;5371;49.782;9.932;2023-10-09T14:54:06;11.00;;;4.88;;
10645;SDS011;5371;49.782;9.932;2023-10-09T14:56:33;12.15;;;5.28;;
10645;SDS011;5371;49.782;9.932;2023-10-09T14:59:02;10.38;;;4.88;;
10645;SDS011;5371;49.782;9.932;2023-10-09T15:01:30;12.35;;;5.00;;
10645;SDS011;5371;49.782;9.932;2023-10-09T15:03:57;8.77;;;4.68;;
10645;SDS011;5371;49.782;9.932;2023-10-09T15:06:26;12.13;;;5.10;;
10645;SDS011;5371;49.782;9.932;2023-10-09T15:08:56;13.00;;;5.63;;
10645;SDS011;5371;49.782;9.932;2023-10-09T15:11:23;14.30;;;5.95;;
10645;SDS011;5371;49.782;9.932;2023-10-09T15:13:54;10.23;;;6.00;;
10645;SDS011;5371;49.782;9.932;2023-10-09T15:16:21;12.35;;;5.35;;
10645;SDS011;5371;49.782;9.932;2023-10-09T15:18:52;13.88;;;5.70;;
10645;SDS011;5371;49.782;9.932;2023-10-09T15:21:30;12.27;;;5.03;;
10645;SDS011;5371;49.782;9.932;2023-10-09T15:23:59;12.15;;;5.47;;
10645;SDS011;5371;49.782;9.932;2023-10-09T15:26:26;11.98;;;5.13;;
10645;SDS011;5371;49.782;9.932;2023-10-09T15:29:00;10.00;;;4.90;;
10645;SDS011;5371;49.782;9.932;2023-10-09T15:31:29;8.38;;;4.57;;
10645;SDS011;5371;49.782;9.932;2023-10-09T15:33:57;10.27;;;4.57;;
10645;SDS011;5371;49.782;9.932;2023-10-09T15:36:24;7.88;;;4.80;;
10645;SDS011;5371;49.782;9.932;2023-10-09T15:38:56;12.50;;;5.25;;
10645;SDS011;5371;49.782;9.932;2023-10-09T15:41:26;8.50;;;4.93;;
10645;SDS011;5371;49.782;9.932;2023-10-09T15:43:55;9.70;;;4.60;;